Time;durP1;ratioP1;P1;durP2;ratioP2;P2;SDS_P1;SDS_P2;PMS_P1;PMS_P2;Temp;Humidity;BMP_temperature;BMP_pressure;BME280_temperature;BME280_humidity;BME280_pressure;Samples;Min_cycle;Max_cycle;Signal;HPM_P1;HPM_P2
2022/03/22 00:00:09;;;;;;;25.95;13.15;;;8.80;99.90;;;;;;6245573;22;20020;-88
2022/03/22 00:02:42;;;;;;;22.67;11.63;;;8.70;99.90;;;;;;6248053;23;20390;-87
2022/03/22 00:05:11;;;;;;;21.42;11.00;;;8.80;99.90;;;;;;6247941;23;20088;-87
2022/03/22 00:07:38;;;;;;;29.85;15.23;;;8.70;99.90;;;;;;6220606;23;20024;-88
2022/03/22 00:10:05;;;;;;;36.58;19.30;;;8.70;99.90;;;;;;6220636;22;20387;-89
2022/03/22 00:12:32;;;;;;;25.98;13.43;;;8.60;99.90;;;;;;6220610;23;20470;-89
2022/03/22 00:15:02;;;;;;;27.25;14.30;;;8.60;99.90;;;;;;6247605;23;20043;-89
2022/03/22 00:17:49;;;;;;;39.25;17.98;;;8.60;99.90;;;;;;6224815;23;20020;-89
2022/03/22 00:20:16;;;;;;;24.30;13.07;;;8.60;99.90;;;;;;6195522;23;20016;-87
2022/03/22 00:22:43;;;;;;;35.40;17.17;;;8.60;99.90;;;;;;6220910;23;20027;-87
2022/03/22 00:25:10;;;;;;;24.65;11.73;;;8.60;99.90;;;;;;6171274;23;20020;-87
2022/03/22 00:27:57;;;;;;;29.98;14.32;;;8.60;99.90;;;;;;6220693;23;20048;-89
2022/03/22 00:30:31;;;;;;;23.80;13.18;;;8.70;99.90;;;;;;6195239;23;20427;-87
2022/03/22 00:33:04;;;;;;;28.90;13.18;;;8.60;99.90;;;;;;6220460;23;20016;-88
2022/03/22 00:35:36;;;;;;;20.60;11.15;;;8.60;99.90;;;;;;6247579;23;20016;-88
2022/03/22 00:38:13;;;;;;;34.75;16.63;;;8.70;99.90;;;;;;6245805;23;20020;-88
2022/03/22 00:40:41;;;;;;;45.08;20.20;;;8.60;99.90;;;;;;6247006;22;20071;-87
2022/03/22 00:43:08;;;;;;;26.70;14.32;;;8.50;99.90;;;;;;6195581;23;20024;-88
2022/03/22 00:45:37;;;;;;;24.60;13.18;;;8.40;99.90;;;;;;6220769;23;20028;-88
2022/03/22 00:48:06;;;;;;;21.90;11.13;;;8.40;99.90;;;;;;6195163;23;20023;-89
2022/03/22 00:50:38;;;;;;;22.20;10.75;;;8.50;99.90;;;;;;6220293;23;20035;-88
2022/03/22 00:53:07;;;;;;;20.95;10.25;;;8.60;99.90;;;;;;6196267;23;20020;-89
2022/03/22 00:55:36;;;;;;;19.17;10.68;;;8.70;99.90;;;;;;6220286;23;20016;-89
2022/03/22 00:58:03;;;;;;;20.48;10.82;;;8.70;99.90;;;;;;6220291;23;20026;-88
2022/03/22 01:00:31;;;;;;;20.05;10.90;;;8.70;99.90;;;;;;6219843;23;20024;-88
2022/03/22 01:02:59;;;;;;;22.52;10.82;;;8.70;99.90;;;;;;6219983;23;20404;-88
2022/03/22 01:05:28;;;;;;;21.40;10.82;;;8.60;99.90;;;;;;6220039;23;20102;-88
2022/03/22 01:08:05;;;;;;;23.08;12.30;;;8.60;99.90;;;;;;6220016;23;20040;-87
2022/03/22 01:10:34;;;;;;;23.58;11.35;;;8.60;99.90;;;;;;6220037;23;20061;-88
2022/03/22 01:13:02;;;;;;;24.30;12.95;;;8.60;99.90;;;;;;6220052;23;20097;-88
2022/03/22 01:15:34;;;;;;;18.70;10.48;;;8.60;99.90;;;;;;6220087;23;20016;-87
2022/03/22 01:18:08;;;;;;;26.40;11.57;;;8.60;99.90;;;;;;6220383;23;20066;-87
2022/03/22 01:20:38;;;;;;;19.10;10.43;;;8.60;99.90;;;;;;6220287;23;20355;-87
2022/03/22 01:23:09;;;;;;;20.75;10.70;;;8.50;99.90;;;;;;6222907;23;20046;-88
2022/03/22 01:25:39;;;;;;;37.38;18.73;;;8.50;99.90;;;;;;6247866;23;20016;-89
2022/03/22 01:28:08;;;;;;;21.35;12.57;;;8.50;99.90;;;;;;6220076;23;20487;-88
2022/03/22 01:30:36;;;;;;;21.35;11.13;;;8.50;99.90;;;;;;6220103;23;20075;-87
2022/03/22 01:33:05;;;;;;;23.75;12.15;;;8.50;99.90;;;;;;6220058;23;20436;-87
2022/03/22 01:35:32;;;;;;;23.00;11.13;;;8.40;99.90;;;;;;6219824;23;20431;-88
2022/03/22 01:38:00;;;;;;;35.25;16.80;;;8.40;99.90;;;;;;6246798;23;20016;-87
2022/03/22 01:40:29;;;;;;;29.45;15.07;;;8.40;99.90;;;;;;6246062;22;20098;-89
2022/03/22 01:42:57;;;;;;;22.70;11.15;;;8.30;99.90;;;;;;6246617;23;20039;-87
2022/03/22 01:45:24;;;;;;;19.95;10.63;;;8.30;99.90;;;;;;6219961;23;20810;-87
2022/03/22 01:47:55;;;;;;;21.20;11.20;;;8.30;99.90;;;;;;6219925;23;20418;-88
2022/03/22 01:50:22;;;;;;;19.40;10.93;;;8.40;99.90;;;;;;6219624;23;20016;-89
2022/03/22 01:52:50;;;;;;;22.60;11.65;;;8.30;99.90;;;;;;6220203;23;20440;-87
2022/03/22 01:55:19;;;;;;;20.80;10.75;;;8.30;99.90;;;;;;6219957;23;20016;-87
2022/03/22 01:57:47;;;;;;;22.02;11.90;;;8.30;99.90;;;;;;6219966;23;20107;-87
2022/03/22 02:00:18;;;;;;;26.02;12.93;;;8.30;99.90;;;;;;6219193;23;20020;-88
2022/03/22 02:05:51;;;;;;;21.95;12.57;;;8.30;99.90;;;;;;6246698;23;20070;-88
2022/03/22 02:08:21;;;;;;;24.58;12.02;;;8.30;99.90;;;;;;6219558;23;20016;-88
2022/03/22 02:10:49;;;;;;;26.23;12.85;;;8.30;99.90;;;;;;6219690;23;20369;-89
2022/03/22 02:13:16;;;;;;;21.60;11.20;;;8.30;99.90;;;;;;6194624;23;20274;-87
2022/03/22 02:15:49;;;;;;;24.52;12.13;;;8.30;99.90;;;;;;6219600;23;20383;-87
2022/03/22 02:18:16;;;;;;;25.83;13.32;;;8.30;99.90;;;;;;6220059;23;20020;-88
2022/03/22 02:20:45;;;;;;;26.50;13.30;;;8.30;99.90;;;;;;6219336;23;20047;-87
2022/03/22 02:23:18;;;;;;;27.00;12.13;;;8.20;99.90;;;;;;6219620;23;20123;-88
2022/03/22 02:25:50;;;;;;;27.92;13.40;;;8.20;99.90;;;;;;6219859;23;20077;-87
2022/03/22 02:28:19;;;;;;;30.52;13.63;;;8.20;99.90;;;;;;6220139;23;20012;-88
2022/03/22 02:30:52;;;;;;;;;;;8.20;99.90;;;;;;6246677;22;20027;-89
2022/03/22 02:33:20;;;;;;;22.17;11.18;;;8.20;99.90;;;;;;6219594;23;19938;-89
2022/03/22 02:35:47;;;;;;;27.17;12.95;;;8.10;99.90;;;;;;6220401;23;20016;-88
2022/03/22 02:38:14;;;;;;;29.40;13.15;;;8.10;99.90;;;;;;6246187;23;20023;-88
2022/03/22 02:40:41;;;;;;;26.50;13.43;;;8.10;99.90;;;;;;6169675;23;20082;-87
2022/03/22 02:43:08;;;;;;;28.27;13.38;;;8.10;99.90;;;;;;6219825;23;20016;-87
2022/03/22 02:45:35;;;;;;;22.33;12.35;;;8.10;99.90;;;;;;6219534;23;20042;-88
2022/03/22 02:48:02;;;;;;;24.55;13.10;;;8.10;99.90;;;;;;6195141;23;20035;-88
2022/03/22 02:50:30;;;;;;;26.80;13.88;;;8.10;99.90;;;;;;6218915;23;20016;-88
2022/03/22 02:52:57;;;;;;;30.10;13.82;;;8.00;99.90;;;;;;6219234;23;20020;-88
2022/03/22 02:55:24;;;;;;;26.85;13.63;;;8.00;99.90;;;;;;6194501;23;20020;-88
2022/03/22 02:57:51;;;;;;;25.05;12.23;;;8.00;99.90;;;;;;6222298;23;20051;-88
2022/03/22 03:00:18;;;;;;;24.52;13.15;;;8.00;99.90;;;;;;6221991;23;20047;-88
2022/03/22 03:02:50;;;;;;;24.13;12.02;;;8.00;99.90;;;;;;6194547;23;20435;-88
2022/03/22 03:05:18;;;;;;;27.67;14.35;;;8.00;99.90;;;;;;6219431;23;20024;-88
2022/03/22 03:07:45;;;;;;;27.95;13.73;;;8.00;99.90;;;;;;6219152;23;20026;-88
2022/03/22 03:10:13;;;;;;;24.00;12.88;;;8.00;99.90;;;;;;6218965;23;20107;-88
2022/03/22 03:12:40;;;;;;;26.10;14.07;;;7.90;99.90;;;;;;6246374;23;20317;-89
2022/03/22 03:15:09;;;;;;;26.42;13.13;;;7.90;99.90;;;;;;6219491;23;20420;-89
2022/03/22 03:17:37;;;;;;;29.40;13.57;;;7.90;99.90;;;;;;6194881;23;20055;-88
2022/03/22 03:20:06;;;;;;;28.67;14.48;;;7.90;99.90;;;;;;6219378;22;20070;-87
2022/03/22 03:22:33;;;;;;;26.50;13.48;;;7.90;99.90;;;;;;6219677;23;20107;-88
2022/03/22 03:25:01;;;;;;;31.48;14.63;;;7.90;99.90;;;;;;6219668;23;20074;-88
2022/03/22 03:27:28;;;;;;;29.42;14.00;;;7.80;99.90;;;;;;6219677;23;20044;-88
2022/03/22 03:29:56;;;;;;;23.52;13.18;;;7.80;99.90;;;;;;6194562;22;20332;-88
2022/03/22 03:32:24;;;;;;;30.45;14.93;;;7.80;99.90;;;;;;6219671;23;20016;-89
2022/03/22 03:34:51;;;;;;;31.73;14.23;;;7.80;99.90;;;;;;6220335;23;20020;-88
2022/03/22 03:37:18;;;;;;;24.52;13.60;;;7.80;99.90;;;;;;6194747;23;20446;-88
2022/03/22 03:39:45;;;;;;;28.60;13.77;;;7.80;99.90;;;;;;6244565;22;20017;-89
2022/03/22 03:42:12;;;;;;;26.60;12.70;;;7.80;99.90;;;;;;6219416;23;20016;-87
2022/03/22 03:47:25;;;;;;;31.23;15.13;;;7.80;99.90;;;;;;6219103;23;20016;-88
2022/03/22 03:49:55;;;;;;;28.48;13.73;;;7.70;99.90;;;;;;6218952;22;20022;-86
2022/03/22 03:52:24;;;;;;;30.92;15.82;;;7.70;99.90;;;;;;6219865;23;20351;-87
2022/03/22 03:54:52;;;;;;;30.48;14.73;;;7.70;99.90;;;;;;6194194;23;20096;-88
2022/03/22 03:57:20;;;;;;;29.58;14.35;;;7.70;99.90;;;;;;6219476;23;20024;-89
2022/03/22 03:59:48;;;;;;;27.98;16.25;;;7.70;99.90;;;;;;6218976;22;20099;-89
2022/03/22 04:02:16;;;;;;;30.92;14.25;;;7.70;99.90;;;;;;6219285;23;20024;-90
2022/03/22 04:04:51;;;;;;;28.30;13.93;;;7.70;99.90;;;;;;6244030;23;20020;-89
2022/03/22 04:07:21;;;;;;;30.75;14.88;;;7.60;99.90;;;;;;6219608;23;20070;-89
2022/03/22 04:09:49;;;;;;;30.25;15.55;;;7.60;99.90;;;;;;6220669;22;20012;-88
2022/03/22 04:12:16;;;;;;;37.17;16.85;;;7.60;99.90;;;;;;6195959;23;20103;-89
2022/03/22 04:14:43;;;;;;;32.28;16.38;;;7.50;99.90;;;;;;6221036;23;20108;-87
2022/03/22 04:17:10;;;;;;;29.40;16.40;;;7.50;99.90;;;;;;6195537;23;20026;-89
2022/03/22 04:19:37;;;;;;;27.38;15.10;;;7.60;99.90;;;;;;6220235;23;20047;-89
2022/03/22 04:22:05;;;;;;;30.25;15.45;;;7.50;99.90;;;;;;6220799;23;20040;-88
2022/03/22 04:24:33;;;;;;;33.42;15.38;;;7.50;99.90;;;;;;6220660;23;20044;-90
2022/03/22 04:32:42;;;;;;;32.40;15.25;;;7.50;99.90;;;;;;6221073;23;20115;-89
2022/03/22 04:35:23;;;;;;;29.45;13.80;;;7.50;99.90;;;;;;6223532;23;20052;-89
2022/03/22 04:37:55;;;;;;;29.88;15.63;;;7.50;99.90;;;;;;6221442;23;20016;-88
2022/03/22 04:40:23;;;;;;;30.67;15.70;;;7.50;99.90;;;;;;6247213;22;20016;-89
2022/03/22 04:42:51;;;;;;;29.50;14.50;;;7.40;99.90;;;;;;6220668;23;20039;-89
2022/03/22 04:45:18;;;;;;;27.10;13.73;;;7.40;99.90;;;;;;6220893;23;20436;-88
2022/03/22 04:47:45;;;;;;;32.85;15.73;;;7.50;99.90;;;;;;6220430;23;20462;-89
2022/03/22 04:50:15;;;;;;;29.67;14.32;;;7.40;99.90;;;;;;6219887;23;20133;-88
2022/03/22 04:58:14;;;;;;;26.73;14.23;;;7.40;99.90;;;;;;6245785;23;20101;-89
2022/03/22 05:00:41;;;;;;;29.17;15.20;;;7.40;99.90;;;;;;6195166;23;20439;-88
2022/03/22 05:03:08;;;;;;;28.00;13.40;;;7.40;99.90;;;;;;6221221;23;20092;-89
2022/03/22 05:08:21;;;;;;;29.27;14.75;;;7.40;99.90;;;;;;6221402;23;20324;-89
2022/03/22 05:10:48;;;;;;;35.63;19.15;;;7.40;99.90;;;;;;6219625;23;20018;-89
2022/03/22 05:13:20;;;;;;;37.13;16.65;;;7.30;99.90;;;;;;6221267;23;20016;-90
2022/03/22 05:15:47;;;;;;;30.05;15.15;;;7.30;99.90;;;;;;6220551;23;20020;-92
2022/03/22 05:18:15;;;;;;;29.70;16.38;;;7.30;99.90;;;;;;6220524;23;20031;-87
2022/03/22 05:20:43;;;;;;;44.78;23.33;;;7.30;99.90;;;;;;6219426;23;20027;-89
2022/03/22 05:23:13;;;;;;;38.83;21.00;;;7.30;99.90;;;;;;6220607;23;20447;-92
2022/03/22 05:25:43;;;;;;;52.70;24.88;;;7.20;99.90;;;;;;6219526;23;20399;-90
2022/03/22 05:28:13;;;;;;;48.45;21.73;;;7.20;99.90;;;;;;6221078;23;20024;-91
2022/03/22 05:30:41;;;;;;;43.63;20.75;;;7.20;99.90;;;;;;6244729;23;20036;-91
2022/03/22 05:33:17;;;;;;;49.58;23.40;;;7.20;99.90;;;;;;6220753;23;20016;-90
2022/03/22 05:35:47;;;;;;;55.92;25.40;;;7.20;99.90;;;;;;6220311;23;20081;-91
2022/03/22 05:38:19;;;;;;;46.13;19.90;;;7.20;99.90;;;;;;6220736;23;20016;-90
2022/03/22 05:40:53;;;;;;;32.00;15.13;;;7.10;99.90;;;;;;6196514;23;20024;-92
2022/03/22 05:43:28;;;;;;;29.42;15.10;;;7.10;99.90;;;;;;6220591;23;20047;-91
2022/03/22 05:46:02;;;;;;;38.03;17.98;;;7.20;99.90;;;;;;6221553;23;20027;-91
2022/03/22 05:48:30;;;;;;;34.58;16.80;;;7.20;99.90;;;;;;6242407;23;20024;-89
2022/03/22 05:51:00;;;;;;;35.47;15.90;;;7.20;99.90;;;;;;6219402;23;20024;-93
2022/03/22 05:53:27;;;;;;;36.00;17.30;;;7.20;99.90;;;;;;6220651;23;20070;-90
2022/03/22 05:55:54;;;;;;;46.30;20.42;;;7.20;99.90;;;;;;6220521;23;20091;-89
2022/03/22 05:58:24;;;;;;;30.88;14.95;;;7.20;99.90;;;;;;6247124;23;20028;-91
2022/03/22 06:00:52;;;;;;;35.90;17.73;;;7.20;99.90;;;;;;6245135;22;20048;-91
2022/03/22 06:03:19;;;;;;;30.45;16.52;;;7.20;99.90;;;;;;6195422;23;20580;-90
2022/03/22 06:05:47;;;;;;;32.83;14.70;;;7.20;99.90;;;;;;6220569;23;20020;-90
2022/03/22 06:08:18;;;;;;;46.20;22.30;;;7.20;99.90;;;;;;6221758;23;20012;-90
2022/03/22 06:10:45;;;;;;;31.92;16.52;;;7.20;99.90;;;;;;6223260;23;20020;-91
2022/03/22 06:13:13;;;;;;;31.13;15.77;;;7.20;99.90;;;;;;6224595;23;20016;-90
2022/03/22 06:15:40;;;;;;;40.45;20.20;;;7.20;99.90;;;;;;6246882;23;20020;-90
2022/03/22 06:18:11;;;;;;;30.23;15.75;;;7.20;99.90;;;;;;6220001;23;20024;-89
2022/03/22 06:20:42;;;;;;;34.58;14.60;;;7.20;99.90;;;;;;6219549;23;20048;-89
2022/03/22 06:23:12;;;;;;;53.38;25.88;;;7.20;99.90;;;;;;6219751;23;20344;-91
2022/03/22 06:25:41;;;;;;;58.67;26.20;;;7.30;99.90;;;;;;6219983;23;20054;-90
2022/03/22 06:28:09;;;;;;;56.83;25.30;;;7.40;99.90;;;;;;6219774;23;20016;-90
2022/03/22 06:30:37;;;;;;;54.35;24.92;;;7.40;99.90;;;;;;6219406;23;20513;-91
2022/03/22 06:33:13;;;;;;;53.22;25.67;;;7.40;99.90;;;;;;6219906;23;20016;-91
2022/03/22 06:35:42;;;;;;;51.53;24.60;;;7.50;99.90;;;;;;6220343;23;20074;-91
2022/03/22 06:38:09;;;;;;;57.75;27.42;;;7.40;99.90;;;;;;6219806;23;20024;-91
2022/03/22 06:40:40;;;;;;;49.17;23.77;;;7.50;99.90;;;;;;6219855;23;20022;-91
2022/03/22 06:43:14;;;;;;;64.65;26.23;;;7.50;99.90;;;;;;6195882;23;20320;-92
2022/03/22 06:45:44;;;;;;;64.28;29.27;;;7.50;99.90;;;;;;6220689;23;20454;-92
2022/03/22 06:48:13;;;;;;;61.15;29.67;;;7.60;99.90;;;;;;6246757;23;20020;-90
2022/03/22 06:50:40;;;;;;;63.65;29.20;;;7.70;99.90;;;;;;6218946;23;20024;-91
2022/03/22 06:53:10;;;;;;;75.35;32.00;;;7.80;99.90;;;;;;6219703;23;20016;-91
2022/03/22 06:55:41;;;;;;;71.85;31.73;;;7.80;99.90;;;;;;6220032;23;20019;-91
2022/03/22 06:58:08;;;;;;;71.68;33.13;;;7.90;99.90;;;;;;6219632;23;20475;-91
2022/03/22 07:00:36;;;;;;;78.60;34.85;;;8.00;99.90;;;;;;6220639;23;20099;-91
2022/03/22 07:03:05;;;;;;;80.18;34.35;;;8.00;99.90;;;;;;6219630;23;20051;-90
2022/03/22 07:05:34;;;;;;;70.28;33.30;;;8.10;99.90;;;;;;6195010;23;20016;-90
2022/03/22 07:08:01;;;;;;;83.65;37.90;;;8.10;99.90;;;;;;6220381;23;20051;-90
2022/03/22 07:10:31;;;;;;;73.70;36.70;;;8.20;99.90;;;;;;6219974;23;20024;-91
2022/03/22 07:13:01;;;;;;;84.28;36.05;;;8.30;99.90;;;;;;6221562;23;20338;-90
2022/03/22 07:15:37;;;;;;;82.38;35.63;;;8.40;99.90;;;;;;6261634;23;20004;-90
2022/03/22 07:18:13;;;;;;;75.47;34.50;;;8.40;99.90;;;;;;6221821;23;20013;-90
2022/03/22 07:20:40;;;;;;;76.30;36.60;;;8.50;99.90;;;;;;6226428;23;20012;-88
2022/03/22 07:23:07;;;;;;;74.40;34.90;;;8.50;99.90;;;;;;6223155;23;20094;-91
2022/03/22 07:25:34;;;;;;;84.57;38.15;;;8.60;99.90;;;;;;6248446;23;20016;-91
2022/03/22 07:28:05;;;;;;;72.72;36.10;;;8.70;99.90;;;;;;6247119;23;20018;-90
2022/03/22 07:30:37;;;;;;;77.40;39.25;;;8.80;99.90;;;;;;6245823;22;20016;-91
2022/03/22 07:33:05;;;;;;;72.22;36.17;;;8.80;99.90;;;;;;6246425;23;20018;-92
2022/03/22 07:35:32;;;;;;;76.25;35.72;;;8.80;99.90;;;;;;6219710;23;20021;-90
2022/03/22 07:38:01;;;;;;;75.18;34.80;;;8.90;99.90;;;;;;6220292;23;20016;-90
2022/03/22 07:40:29;;;;;;;70.20;32.45;;;8.90;99.90;;;;;;6219201;23;20020;-91
2022/03/22 07:42:56;;;;;;;76.50;36.22;;;8.90;99.90;;;;;;6220228;23;20019;-92
2022/03/22 07:45:25;;;;;;;79.10;36.40;;;8.90;99.90;;;;;;6222431;23;20017;-91
2022/03/22 07:47:55;;;;;;;65.93;33.00;;;9.00;99.90;;;;;;6223102;23;20078;-90
2022/03/22 07:53:08;;;;;;;71.32;32.85;;;9.00;99.90;;;;;;6225981;23;20032;-92
2022/03/22 07:55:40;;;;;;;64.05;31.15;;;9.10;99.90;;;;;;6221743;23;20048;-90
2022/03/22 07:58:08;;;;;;;59.58;32.30;;;9.10;99.90;;;;;;6246951;22;20047;-89
2022/03/22 08:00:38;;;;;;;73.18;34.58;;;9.10;99.90;;;;;;6220844;23;20020;-93
2022/03/22 08:03:15;;;;;;;68.13;32.92;;;9.20;99.90;;;;;;6223609;23;20020;-92
2022/03/22 08:05:45;;;;;;;71.60;33.28;;;9.20;99.90;;;;;;6248337;23;20051;-89
2022/03/22 08:08:14;;;;;;;68.63;31.92;;;9.20;99.90;;;;;;6222057;23;20503;-90
2022/03/22 08:11:00;;;;;;;68.72;33.42;;;9.20;99.90;;;;;;6221195;23;20020;-92
2022/03/22 08:13:29;;;;;;;74.32;35.38;;;9.30;99.90;;;;;;6221289;23;20024;-91
2022/03/22 08:15:56;;;;;;;65.95;31.65;;;9.30;99.90;;;;;;6222282;23;20069;-92
2022/03/22 08:18:23;;;;;;;65.88;32.78;;;9.30;99.90;;;;;;6221496;23;20017;-91
2022/03/22 08:20:53;;;;;;;65.82;33.28;;;9.40;99.90;;;;;;6221073;23;20020;-90
2022/03/22 08:23:21;;;;;;;72.38;35.03;;;9.40;99.90;;;;;;6248322;23;20324;-92
2022/03/22 08:25:50;;;;;;;63.35;34.67;;;9.50;99.90;;;;;;6221324;23;20027;-91
2022/03/22 08:28:18;;;;;;;64.43;31.58;;;9.50;99.90;;;;;;6196721;23;20043;-91
2022/03/22 08:30:46;;;;;;;62.67;32.90;;;9.50;99.90;;;;;;6220853;23;20103;-90
2022/03/22 08:33:14;;;;;;;74.72;34.70;;;9.60;99.90;;;;;;6196449;23;20024;-89
2022/03/22 08:35:50;;;;;;;65.53;34.75;;;9.70;99.90;;;;;;6222413;23;20020;-91
2022/03/22 08:38:19;;;;;;;65.90;30.95;;;9.70;99.90;;;;;;6220904;23;20497;-93
2022/03/22 08:40:47;;;;;;;71.13;34.25;;;9.80;99.90;;;;;;6220577;23;20435;-91
2022/03/22 08:43:15;;;;;;;65.43;32.47;;;9.80;99.90;;;;;;6247740;23;20016;-91
2022/03/22 08:45:44;;;;;;;58.95;31.65;;;9.90;99.90;;;;;;6196289;23;20036;-89
2022/03/22 08:48:12;;;;;;;68.63;34.25;;;10.00;99.90;;;;;;6220596;23;20103;-90
2022/03/22 08:50:42;;;;;;;69.60;32.15;;;10.10;99.90;;;;;;6221057;23;20039;-91
2022/03/22 08:53:11;;;;;;;62.88;31.65;;;10.20;99.90;;;;;;6247819;23;20332;-91
2022/03/22 08:55:45;;;;;;;56.80;31.42;;;10.20;99.90;;;;;;6247651;23;20016;-92
2022/03/22 08:58:12;;;;;;;69.82;31.98;;;10.30;99.90;;;;;;6221241;23;20008;-91
2022/03/22 09:00:42;;;;;;;72.65;33.05;;;10.20;99.90;;;;;;6220835;23;20019;-90
2022/03/22 09:03:10;;;;;;;60.58;34.35;;;10.40;99.90;;;;;;6221426;23;20024;-91
2022/03/22 09:08:25;;;;;;;64.97;34.55;;;10.60;99.90;;;;;;6247767;23;20347;-90
2022/03/22 09:10:53;;;;;;;57.13;33.08;;;10.70;99.90;;;;;;6246708;22;20020;-92
2022/03/22 09:13:20;;;;;;;65.05;31.92;;;10.70;99.90;;;;;;6220814;23;20016;-88
2022/03/22 09:15:51;;;;;;;69.07;31.92;;;10.70;99.90;;;;;;6220576;23;20022;-90
2022/03/22 09:18:22;;;;;;;64.38;31.75;;;10.80;99.90;;;;;;6221508;23;20012;-90
2022/03/22 09:20:50;;;;;;;61.22;30.38;;;10.90;99.90;;;;;;6220446;23;20012;-90
2022/03/22 09:23:21;;;;;;;69.60;33.30;;;10.90;99.90;;;;;;6223425;23;20083;-90
2022/03/22 09:25:48;;;;;;;59.10;31.17;;;11.00;99.90;;;;;;6248347;22;20020;-90
2022/03/22 09:28:15;;;;;;;67.10;31.70;;;11.10;99.90;;;;;;6195551;23;20388;-90
2022/03/22 09:30:48;;;;;;;58.42;33.38;;;11.20;99.90;;;;;;6246750;22;20016;-90
2022/03/22 09:33:16;;;;;;;63.40;33.65;;;11.30;99.90;;;;;;6221200;23;20050;-89
2022/03/22 09:35:43;;;;;;;54.75;31.50;;;11.30;99.90;;;;;;6246698;22;20008;-89
2022/03/22 09:38:15;;;;;;;60.88;32.38;;;11.30;99.90;;;;;;6197413;23;20024;-91
2022/03/22 09:40:43;;;;;;;63.70;31.55;;;11.40;99.90;;;;;;6221389;23;20343;-91
2022/03/22 09:43:12;;;;;;;65.47;34.00;;;11.50;99.90;;;;;;6220780;23;20024;-90
2022/03/22 09:45:42;;;;;;;56.55;29.48;;;11.50;99.90;;;;;;6220617;23;20445;-90
2022/03/22 09:48:15;;;;;;;61.45;30.40;;;11.60;99.90;;;;;;6221504;23;20078;-90
2022/03/22 09:53:27;;;;;;;53.20;29.27;;;11.90;99.90;;;;;;6247605;23;20016;-91
2022/03/22 09:55:58;;;;;;;63.60;31.58;;;12.00;99.90;;;;;;6220759;23;20012;-90
2022/03/22 09:58:27;;;;;;;56.33;30.00;;;12.10;99.90;;;;;;6221075;23;20012;-91
2022/03/22 10:00:57;;;;;;;54.00;29.88;;;12.10;99.90;;;;;;6221270;23;20359;-92
2022/03/22 10:03:25;;;;;;;52.70;30.70;;;12.20;99.90;;;;;;6218926;23;20443;-91
2022/03/22 10:06:01;;;;;;;53.40;28.55;;;12.40;99.90;;;;;;6218688;23;20020;-90
2022/03/22 10:08:28;;;;;;;60.78;29.55;;;12.30;99.90;;;;;;6220464;23;20070;-91
2022/03/22 10:10:58;;;;;;;52.88;28.70;;;12.40;99.90;;;;;;6220053;23;20348;-90
2022/03/22 10:13:25;;;;;;;55.50;29.65;;;12.50;99.90;;;;;;6220917;23;20472;-90
2022/03/22 10:16:04;;;;;;;50.95;28.52;;;12.50;99.90;;;;;;6195188;23;20432;-88
2022/03/22 10:18:35;;;;;;;54.13;29.55;;;12.50;99.90;;;;;;6246911;23;20016;-89
2022/03/22 10:21:06;;;;;;;55.92;29.48;;;12.60;99.90;;;;;;6246417;22;20023;-89
2022/03/22 10:23:34;;;;;;;56.83;29.85;;;12.80;99.90;;;;;;6220013;23;20016;-90
2022/03/22 10:26:06;;;;;;;51.25;27.50;;;12.80;99.90;;;;;;6219684;23;20091;-89
2022/03/22 10:28:36;;;;;;;51.95;27.33;;;12.90;99.90;;;;;;6221058;23;20012;-89
2022/03/22 10:31:05;;;;;;;50.88;25.55;;;12.90;99.90;;;;;;6219346;23;20008;-88
2022/03/22 10:33:35;;;;;;;55.80;28.52;;;12.90;99.90;;;;;;6220114;23;20016;-90
2022/03/22 10:36:13;;;;;;;58.35;29.85;;;12.90;99.90;;;;;;6219841;23;20012;-90
2022/03/22 10:38:51;;;;;;;50.22;26.48;;;13.10;99.90;;;;;;6220486;23;20019;-89
2022/03/22 10:41:28;;;;;;;56.88;26.17;;;13.10;99.90;;;;;;6219681;23;20016;-89
2022/03/22 10:44:15;;;;;;;55.13;28.75;;;13.20;99.90;;;;;;6219560;23;20103;-89
2022/03/22 10:46:45;;;;;;;52.17;27.80;;;13.40;99.90;;;;;;6219650;23;20348;-89
2022/03/22 10:49:16;;;;;;;54.50;29.13;;;13.50;99.90;;;;;;6219415;23;20008;-91
2022/03/22 10:51:52;;;;;;;54.55;26.92;;;13.40;99.90;;;;;;6196735;23;20401;-91
2022/03/22 10:54:20;;;;;;;51.05;27.17;;;13.50;99.90;;;;;;6219581;23;20051;-91
2022/03/22 10:56:47;;;;;;;57.13;29.75;;;13.60;99.90;;;;;;6220167;23;20066;-90
2022/03/22 10:59:17;;;;;;;50.55;28.45;;;13.80;99.90;;;;;;6246744;23;20305;-91
2022/03/22 11:01:46;;;;;;;58.88;31.90;;;14.00;99.90;;;;;;6195502;23;20024;-89
2022/03/22 11:04:15;;;;;;;59.08;30.23;;;13.90;99.90;;;;;;6220398;23;20070;-91
2022/03/22 11:06:47;;;;;;;47.55;26.98;;;14.00;99.90;;;;;;6194785;23;20030;-92
2022/03/22 11:09:20;;;;;;;50.17;27.83;;;14.00;99.90;;;;;;6220971;23;20066;-89
2022/03/22 11:11:50;;;;;;;52.13;28.95;;;14.20;99.90;;;;;;6195519;23;20022;-90
2022/03/22 11:14:19;;;;;;;58.47;27.42;;;14.10;99.90;;;;;;6220399;23;20020;-90
2022/03/22 11:16:48;;;;;;;51.80;25.95;;;14.20;99.90;;;;;;6219965;23;20020;-89
2022/03/22 11:19:22;;;;;;;52.60;27.58;;;14.30;99.90;;;;;;6221536;23;20589;-88
2022/03/22 11:21:50;;;;;;;48.88;27.45;;;14.50;99.90;;;;;;6222182;23;20020;-88
2022/03/22 11:24:23;;;;;;;46.92;26.23;;;14.50;99.90;;;;;;6221925;23;20074;-89
2022/03/22 11:26:54;;;;;;;54.25;28.15;;;14.60;99.90;;;;;;6221785;23;20467;-90
2022/03/22 11:29:24;;;;;;;50.67;28.65;;;14.70;99.90;;;;;;6221423;23;20089;-91
2022/03/22 11:34:41;;;;;;;45.78;25.05;;;14.80;99.90;;;;;;6201098;23;20024;-90
2022/03/22 11:37:10;;;;;;;47.25;25.80;;;14.70;99.90;;;;;;6222606;23;20054;-90
2022/03/22 11:42:25;;;;;;;52.70;27.00;;;14.90;99.90;;;;;;6260609;23;20027;-90
2022/03/22 11:44:58;;;;;;;48.60;26.58;;;14.90;99.90;;;;;;6248952;23;20379;-91
2022/03/22 11:47:49;;;;;;;45.47;27.00;;;15.10;99.90;;;;;;6249495;23;20022;-91
2022/03/22 11:50:23;;;;;;;41.65;25.98;;;14.70;99.90;;;;;;6221996;23;20017;-92
2022/03/22 12:01:36;;;;;;;41.63;23.85;;;14.90;99.90;;;;;;6126694;23;20071;-92
2022/03/22 12:04:17;;;;;;;41.20;23.05;;;14.80;99.90;;;;;;6101895;23;20050;-91
2022/03/22 12:06:45;;;;;;;41.22;23.00;;;14.90;99.90;;;;;;6129217;23;20013;-90
2022/03/22 12:09:12;;;;;;;44.30;22.80;;;15.00;99.90;;;;;;6196913;23;20016;-92
2022/03/22 12:11:48;;;;;;;43.55;25.67;;;15.00;99.90;;;;;;6198188;23;20027;-92
2022/03/22 12:14:27;;;;;;;46.35;25.33;;;14.90;99.90;;;;;;6222086;23;20017;-91
2022/03/22 12:17:10;;;;;;;41.92;24.88;;;14.80;98.50;;;;;;6222941;23;20020;-91
2022/03/22 12:22:47;;;;;;;42.95;24.83;;;14.60;83.10;;;;;;6309092;22;20038;-86
2022/03/22 12:25:19;;;;;;;50.80;27.83;;;14.70;85.20;;;;;;6281812;22;20101;-91
2022/03/22 12:28:08;;;;;;;46.60;25.40;;;14.70;65.00;;;;;;6282315;22;20069;-87
2022/03/22 12:30:39;;;;;;;47.10;24.35;;;14.70;60.40;;;;;;6281401;22;20064;-90
2022/03/22 12:33:24;;;;;;;47.05;23.25;;;14.80;51.80;;;;;;6286356;22;20082;-87
2022/03/22 12:35:51;;;;;;;41.70;24.38;;;15.00;42.30;;;;;;6286316;22;20469;-88
2022/03/22 12:38:18;;;;;;;43.42;24.70;;;15.20;36.00;;;;;;6310189;22;20388;-88
2022/03/22 12:40:45;;;;;;;40.65;23.55;;;15.30;22.70;;;;;;6281887;22;20047;-88
2022/03/22 12:43:19;;;;;;;48.25;25.75;;;15.30;15.80;;;;;;6282706;22;20042;-89
2022/03/22 12:45:49;;;;;;;46.00;24.35;;;15.40;16.10;;;;;;6309549;22;20019;-89
2022/03/22 12:48:18;;;;;;;41.03;23.38;;;15.40;12.30;;;;;;6257584;22;20438;-89
2022/03/22 12:50:50;;;;;;;41.67;22.63;;;15.60;10.60;;;;;;6281548;22;20047;-90
2022/03/22 12:53:18;;;;;;;42.03;23.13;;;15.70;5.20;;;;;;6309332;22;20248;-88
2022/03/22 12:55:46;;;;;;;43.83;23.63;;;15.90;5.10;;;;;;6309092;22;20183;-87
2022/03/22 12:58:12;;;;;;;49.67;24.80;;;16.10;3.30;;;;;;6282841;22;20020;-91
2022/03/22 13:00:44;;;;;;;42.50;23.40;;;15.90;1.00;;;;;;6282962;22;20019;-89
2022/03/22 13:03:17;;;;;;;43.28;23.92;;;15.90;1.00;;;;;;6309139;22;20097;-89
2022/03/22 13:05:52;;;;;;;44.75;24.98;;;15.90;1.00;;;;;;6257176;22;20015;-90
2022/03/22 13:08:23;;;;;;;45.65;25.35;;;15.70;2.10;;;;;;6281990;22;20450;-89
2022/03/22 13:16:31;;;;;;;42.90;24.23;;;16.00;4.10;;;;;;6281734;22;20015;-90
2022/03/22 13:18:59;;;;;;;44.97;24.00;;;16.20;5.60;;;;;;6256111;22;20039;-90
2022/03/22 13:21:33;;;;;;;42.35;23.50;;;16.40;3.40;;;;;;6309170;22;20410;-88
2022/03/22 13:24:01;;;;;;;47.88;24.13;;;16.40;3.80;;;;;;6256267;22;20442;-88
2022/03/22 13:26:28;;;;;;;46.75;24.58;;;16.30;3.70;;;;;;6281839;22;20026;-89
2022/03/22 13:28:56;;;;;;;39.28;23.40;;;16.60;3.00;;;;;;6309107;22;20023;-88
2022/03/22 13:31:25;;;;;;;41.78;23.77;;;16.60;1.50;;;;;;6281810;22;20015;-88
2022/03/22 13:33:54;;;;;;;37.70;23.70;;;16.40;2.00;;;;;;6257274;22;20025;-88
2022/03/22 13:36:22;;;;;;;44.03;24.60;;;16.30;2.40;;;;;;6257465;22;20042;-88